createdAt,value
2022-10-18T00:00:39.496Z,0
2022-10-18T00:01:42.307Z,0
2022-10-18T00:02:45.502Z,0
2022-10-18T00:04:19.953Z,0
2022-10-18T00:05:22.673Z,0
2022-10-18T00:06:25.313Z,0
2022-10-18T00:08:00.370Z,0
2022-10-18T00:09:03.055Z,0
2022-10-18T00:10:05.706Z,0
2022-10-18T00:11:40.022Z,0
2022-10-18T00:12:43.056Z,0
2022-10-18T00:13:45.748Z,0
2022-10-18T00:15:20.306Z,0
2022-10-18T00:16:22.981Z,0
2022-10-18T00:17:25.807Z,0
2022-10-18T00:19:00.251Z,0
2022-10-18T00:20:03.047Z,0
2022-10-18T00:21:05.647Z,0
2022-10-18T00:22:40.891Z,0
2022-10-18T00:23:43.537Z,0
2022-10-18T00:24:46.172Z,0
2022-10-18T00:26:20.775Z,0
2022-10-18T00:27:23.508Z,0
2022-10-18T00:28:26.230Z,0
2022-10-18T00:30:00.915Z,0
2022-10-18T00:31:03.685Z,0
2022-10-18T00:32:06.332Z,0
2022-10-18T00:33:41.519Z,0
2022-10-18T00:34:44.292Z,0
2022-10-18T00:35:47.057Z,0
2022-10-18T00:37:21.561Z,0
2022-10-18T00:38:24.214Z,0
2022-10-18T00:39:26.809Z,0
2022-10-18T00:41:01.329Z,0
2022-10-18T00:42:03.938Z,0
2022-10-18T00:43:06.554Z,0
2022-10-18T00:44:41.097Z,0
2022-10-18T00:45:43.812Z,0
2022-10-18T00:46:46.481Z,0
2022-10-18T00:48:20.848Z,0
2022-10-18T00:49:23.606Z,0
2022-10-18T00:50:26.315Z,0
2022-10-18T00:52:00.749Z,0
2022-10-18T00:53:03.415Z,0
2022-10-18T00:54:06.118Z,0
2022-10-18T00:55:40.679Z,0
2022-10-18T00:56:43.298Z,0
2022-10-18T00:57:46.420Z,0
2022-10-18T00:59:20.801Z,0
2022-10-18T01:00:39.784Z,0
2022-10-18T01:01:48.816Z,0
2022-10-18T01:02:52.104Z,0
2022-10-18T01:04:26.608Z,0
2022-10-18T01:05:29.363Z,0
2022-10-18T01:06:32.017Z,0
2022-10-18T01:08:06.599Z,0
2022-10-18T01:09:09.297Z,0
2022-10-18T01:10:11.893Z,0
2022-10-18T01:11:46.292Z,0
2022-10-18T01:12:48.980Z,0
2022-10-18T01:13:54.019Z,0
2022-10-18T01:15:28.275Z,0
2022-10-18T01:16:30.894Z,0
2022-10-18T01:17:34.115Z,0
2022-10-18T01:19:08.738Z,0
2022-10-18T01:20:11.337Z,0
2022-10-18T01:21:13.997Z,0
2022-10-18T01:22:48.434Z,0
2022-10-18T01:23:51.080Z,0
2022-10-18T01:24:54.067Z,0
2022-10-18T01:26:28.636Z,0
2022-10-18T01:27:31.584Z,0
2022-10-18T01:28:34.741Z,0
2022-10-18T01:30:09.521Z,0
2022-10-18T01:31:12.194Z,0
2022-10-18T01:32:19.878Z,0
2022-10-18T01:33:54.446Z,0
2022-10-18T01:34:57.119Z,0
2022-10-18T01:35:59.755Z,0
2022-10-18T01:37:34.884Z,0
2022-10-18T01:38:37.551Z,0
2022-10-18T01:39:40.163Z,0
2022-10-18T01:41:21.308Z,0
2022-10-18T01:42:23.934Z,0
2022-10-18T01:43:26.724Z,0
2022-10-18T01:45:01.171Z,0
2022-10-18T01:46:03.904Z,0
2022-10-18T01:47:06.532Z,0
2022-10-18T01:48:41.617Z,0
2022-10-18T01:49:44.236Z,0
2022-10-18T01:50:47.031Z,0
2022-10-18T01:52:21.738Z,0
2022-10-18T01:53:24.396Z,0
2022-10-18T01:54:26.984Z,0
2022-10-18T01:56:02.011Z,0
2022-10-18T01:57:05.083Z,0
2022-10-18T01:58:07.820Z,0
2022-10-18T01:59:42.211Z,0
2022-10-18T02:00:39.819Z,0
2022-10-18T02:01:42.493Z,0
2022-10-18T02:02:45.877Z,0
2022-10-18T02:04:20.137Z,0
2022-10-18T02:05:22.793Z,0
2022-10-18T02:06:25.508Z,0
2022-10-18T02:08:29.045Z,0
2022-10-18T02:09:31.666Z,0
2022-10-18T02:10:34.555Z,0
2022-10-18T02:12:09.010Z,0
2022-10-18T02:13:11.682Z,0
2022-10-18T02:14:14.399Z,0
2022-10-18T02:15:48.908Z,0
2022-10-18T02:16:51.520Z,0
2022-10-18T02:17:54.175Z,0
2022-10-18T02:19:28.674Z,0
2022-10-18T02:20:31.266Z,0
2022-10-18T02:21:33.917Z,0
2022-10-18T02:23:08.170Z,0
2022-10-18T02:24:10.796Z,0
2022-10-18T02:25:13.448Z,0
2022-10-18T02:26:48.070Z,0
2022-10-18T02:27:50.939Z,0
2022-10-18T02:28:53.570Z,0
2022-10-18T02:30:28.003Z,0
2022-10-18T02:31:30.633Z,0
2022-10-18T02:32:34.036Z,0
2022-10-18T02:34:08.569Z,0
2022-10-18T02:35:11.166Z,0
2022-10-18T02:36:13.792Z,0
2022-10-18T02:37:49.340Z,0
2022-10-18T02:38:51.961Z,0
2022-10-18T02:39:54.769Z,0
2022-10-18T02:41:29.125Z,0
2022-10-18T02:42:32.035Z,0
2022-10-18T02:43:34.922Z,0
2022-10-18T02:45:09.430Z,0
2022-10-18T02:46:12.091Z,0
2022-10-18T02:47:14.680Z,0
2022-10-18T02:48:49.137Z,0
2022-10-18T02:49:51.801Z,0
2022-10-18T02:50:54.649Z,0
2022-10-18T02:52:29.090Z,0
2022-10-18T02:53:31.819Z,0
2022-10-18T02:54:34.422Z,0
2022-10-18T02:56:08.849Z,0
2022-10-18T02:57:11.543Z,0
2022-10-18T02:58:14.156Z,0
2022-10-18T02:59:48.424Z,0
2022-10-18T03:00:39.663Z,0
2022-10-18T03:01:43.015Z,0
2022-10-18T03:02:45.621Z,0
2022-10-18T03:04:20.305Z,0
2022-10-18T03:05:23.032Z,0
2022-10-18T03:06:25.739Z,0
2022-10-18T03:08:00.812Z,0
2022-10-18T03:09:03.431Z,0
2022-10-18T03:10:06.078Z,0
2022-10-18T03:11:40.453Z,0
2022-10-18T03:12:43.197Z,0
2022-10-18T03:13:47.023Z,0
2022-10-18T03:15:21.389Z,0
2022-10-18T03:16:24.064Z,0
2022-10-18T03:17:26.675Z,0
2022-10-18T03:19:01.067Z,0
2022-10-18T03:20:03.896Z,0
2022-10-18T03:21:06.613Z,0
2022-10-18T03:22:41.362Z,0
2022-10-18T03:23:44.095Z,0
2022-10-18T03:24:46.740Z,0
2022-10-18T03:26:21.130Z,0
2022-10-18T03:27:23.830Z,0
2022-10-18T03:28:26.730Z,0
2022-10-18T03:30:01.300Z,0
2022-10-18T03:31:03.854Z,0
2022-10-18T03:32:06.720Z,0
2022-10-18T03:33:41.758Z,0
2022-10-18T03:34:44.403Z,0
2022-10-18T03:35:47.145Z,0
2022-10-18T03:37:27.101Z,0
2022-10-18T03:38:29.846Z,0
2022-10-18T03:39:32.527Z,0
2022-10-18T03:41:06.914Z,0
2022-10-18T03:42:09.566Z,0
2022-10-18T03:43:12.238Z,0
2022-10-18T03:44:46.801Z,0
2022-10-18T03:45:53.696Z,0
2022-10-18T03:46:56.347Z,0
2022-10-18T03:48:30.753Z,0
2022-10-18T03:50:36.171Z,0
2022-10-18T03:52:10.523Z,0
2022-10-18T03:53:13.144Z,0
2022-10-18T03:54:15.834Z,0
2022-10-18T03:55:50.450Z,0
2022-10-18T03:56:53.208Z,0
2022-10-18T03:57:55.946Z,0
2022-10-18T03:59:30.644Z,0
2022-10-18T04:00:40.166Z,0
2022-10-18T04:01:43.623Z,0
2022-10-18T04:02:49.685Z,0
2022-10-18T04:04:26.514Z,0
2022-10-18T04:06:11.213Z,0
2022-10-18T04:07:13.974Z,0
2022-10-18T04:08:16.778Z,0
2022-10-18T04:09:51.276Z,0
2022-10-18T04:10:53.945Z,0
2022-10-18T04:11:56.656Z,0
2022-10-18T04:13:31.848Z,0
2022-10-18T04:14:34.546Z,0
2022-10-18T04:15:37.430Z,0
2022-10-18T04:17:11.790Z,0
2022-10-18T04:18:14.473Z,0
2022-10-18T04:19:17.212Z,0
2022-10-18T04:20:51.598Z,0
2022-10-18T04:21:54.392Z,0
2022-10-18T04:22:57.093Z,0
2022-10-18T04:24:31.528Z,0
2022-10-18T04:25:34.323Z,0
2022-10-18T04:26:37.131Z,0
2022-10-18T04:28:11.569Z,0
2022-10-18T04:29:15.121Z,0
2022-10-18T04:30:17.826Z,0
2022-10-18T04:31:52.455Z,0
2022-10-18T04:32:55.120Z,0
2022-10-18T04:33:57.905Z,0
2022-10-18T04:35:32.424Z,0
2022-10-18T04:36:35.033Z,0
2022-10-18T04:37:38.110Z,0
2022-10-18T04:39:12.696Z,0
2022-10-18T04:40:20.673Z,0
2022-10-18T04:41:23.332Z,0
2022-10-18T04:42:58.061Z,0
2022-10-18T04:44:00.866Z,0
2022-10-18T04:45:03.827Z,0
2022-10-18T04:46:38.275Z,0
2022-10-18T04:47:41.527Z,0
2022-10-18T04:48:44.132Z,0
2022-10-18T04:50:18.638Z,0
2022-10-18T04:51:21.381Z,0
2022-10-18T04:52:24.071Z,0
2022-10-18T04:53:58.596Z,0
2022-10-18T04:55:01.321Z,0
2022-10-18T04:56:04.016Z,0
2022-10-18T04:57:38.919Z,0
2022-10-18T04:58:41.688Z,0
2022-10-18T04:59:44.340Z,0
2022-10-18T05:00:45.728Z,0
2022-10-18T05:01:49.330Z,0
2022-10-18T05:02:52.891Z,0
2022-10-18T05:04:27.364Z,0
2022-10-18T05:06:07.134Z,0
2022-10-18T05:07:09.714Z,0
2022-10-18T05:08:44.438Z,0
2022-10-18T05:09:47.387Z,0
2022-10-18T05:10:50.185Z,0
2022-10-18T05:12:24.624Z,0
2022-10-18T05:13:27.372Z,0
2022-10-18T05:14:30.038Z,0
2022-10-18T05:16:05.293Z,0
2022-10-18T05:17:07.946Z,0
2022-10-18T05:18:10.751Z,0
2022-10-18T05:19:45.374Z,0
2022-10-18T05:20:48.061Z,0
2022-10-18T05:21:50.828Z,0
2022-10-18T05:23:25.228Z,0
2022-10-18T05:24:33.237Z,0
2022-10-18T05:25:35.819Z,0
2022-10-18T05:27:10.305Z,0
2022-10-18T05:28:45.149Z,0
2022-10-18T05:29:48.387Z,0
2022-10-18T05:31:22.872Z,0
2022-10-18T05:32:25.625Z,0
2022-10-18T05:33:28.321Z,0
2022-10-18T05:35:02.806Z,0
2022-10-18T05:36:05.649Z,0
2022-10-18T05:37:08.377Z,0
2022-10-18T05:38:43.481Z,0
2022-10-18T05:39:46.522Z,0
2022-10-18T05:40:49.190Z,0
2022-10-18T05:42:23.643Z,0
2022-10-18T05:43:26.334Z,0
2022-10-18T05:44:29.121Z,0
2022-10-18T05:46:03.453Z,0
2022-10-18T05:47:06.269Z,0
2022-10-18T05:48:08.944Z,0
2022-10-18T05:49:43.541Z,0
2022-10-18T05:50:51.523Z,0
2022-10-18T05:51:54.321Z,0
2022-10-18T05:53:58.877Z,0
2022-10-18T05:55:01.807Z,0
2022-10-18T05:56:04.478Z,0
2022-10-18T05:57:39.714Z,0
2022-10-18T05:58:42.455Z,0
2022-10-18T05:59:45.165Z,0
2022-10-18T06:00:40.552Z,0
2022-10-18T06:01:43.256Z,0
2022-10-18T06:02:46.330Z,0
2022-10-18T06:04:20.789Z,0
2022-10-18T06:05:23.537Z,0
2022-10-18T06:06:26.190Z,0
2022-10-18T06:08:02.522Z,0
2022-10-18T06:09:06.148Z,0
2022-10-18T06:10:08.891Z,0
2022-10-18T06:11:43.440Z,0
2022-10-18T06:12:46.078Z,0
2022-10-18T06:13:50.563Z,0
2022-10-18T06:15:25.008Z,0
2022-10-18T06:16:32.215Z,0
2022-10-18T06:17:38.806Z,0
2022-10-18T06:19:13.405Z,0
2022-10-18T06:20:16.133Z,0
2022-10-18T06:21:19.209Z,0
2022-10-18T06:22:53.861Z,0
2022-10-18T06:23:56.724Z,0
2022-10-18T06:25:02.996Z,0
2022-10-18T06:26:37.487Z,0
2022-10-18T06:27:40.877Z,0
2022-10-18T06:28:43.872Z,0
2022-10-18T06:30:18.553Z,0
2022-10-18T06:31:21.254Z,0
2022-10-18T06:32:24.002Z,0
2022-10-18T06:33:58.656Z,0
2022-10-18T06:35:01.436Z,0
2022-10-18T06:36:04.161Z,0
2022-10-18T06:37:39.270Z,0
2022-10-18T06:38:42.049Z,0
2022-10-18T06:39:44.737Z,0
2022-10-18T06:41:19.223Z,0
2022-10-18T06:42:26.057Z,0
2022-10-18T06:43:43.726Z,0
2022-10-18T06:45:18.130Z,0
2022-10-18T06:46:20.864Z,0
2022-10-18T06:47:23.738Z,0
2022-10-18T06:48:58.297Z,0
2022-10-18T06:50:00.949Z,0
2022-10-18T06:51:03.967Z,0
2022-10-18T06:52:39.238Z,0.435
2022-10-18T06:54:13.054Z,0
2022-10-18T06:55:25.284Z,0
2022-10-18T06:56:59.917Z,0.435
2022-10-18T06:58:02.829Z,0
2022-10-18T06:59:05.916Z,0
2022-10-18T07:00:40.361Z,0.435
2022-10-18T07:01:43.701Z,0.435
2022-10-18T07:02:47.162Z,0.435
2022-10-18T07:04:21.733Z,0.435
2022-10-18T07:05:25.187Z,0.435
2022-10-18T07:06:28.063Z,0.435
2022-10-18T07:08:07.639Z,0
2022-10-18T07:09:10.329Z,0.435
2022-10-18T07:10:16.759Z,0.435
2022-10-18T07:11:51.476Z,0.435
2022-10-18T07:13:08.002Z,0.435
2022-10-18T07:14:40.076Z,0.435
2022-10-18T07:16:22.956Z,0.435
2022-10-18T07:17:25.726Z,0.435
2022-10-18T07:18:28.384Z,0.435
2022-10-18T07:20:02.959Z,0.435
2022-10-18T07:21:05.724Z,0.435
2022-10-18T07:22:08.454Z,0.435
2022-10-18T07:23:44.482Z,0.435
2022-10-18T07:24:47.379Z,0.585
2022-10-18T07:25:53.889Z,0.585
2022-10-18T07:27:28.470Z,0.435
2022-10-18T07:28:31.449Z,0.585
2022-10-18T07:29:34.373Z,0.585
2022-10-18T07:31:13.554Z,0.585
2022-10-18T07:32:16.128Z,0.735
2022-10-18T07:33:18.756Z,0.735
2022-10-18T07:34:53.296Z,0.585
2022-10-18T07:35:56.060Z,0.585
2022-10-18T07:36:58.808Z,0.585
2022-10-18T07:38:39.094Z,0.585
2022-10-18T07:39:41.761Z,0.585
2022-10-18T07:40:44.531Z,0.735
2022-10-18T07:42:19.068Z,0.735
2022-10-18T07:43:29.233Z,0.735
2022-10-18T07:44:31.877Z,0.885
2022-10-18T07:46:06.671Z,0.885
2022-10-18T07:47:09.315Z,0.885
2022-10-18T07:48:11.942Z,0.885
2022-10-18T07:49:46.283Z,0.735
2022-10-18T07:50:49.118Z,0.885
2022-10-18T07:51:51.962Z,0.885
2022-10-18T07:53:26.541Z,0.885
2022-10-18T07:54:29.264Z,0.885
2022-10-18T07:55:32.217Z,0.885
2022-10-18T07:57:12.252Z,1.02
2022-10-18T07:58:15.123Z,0.885
2022-10-18T07:59:17.919Z,0.885
2022-10-18T08:00:39.178Z,1.02
2022-10-18T08:01:42.497Z,0.885
2022-10-18T08:02:45.245Z,1.02
2022-10-18T08:04:27.841Z,1.02
2022-10-18T08:05:30.809Z,1.02
2022-10-18T08:06:33.587Z,1.02
2022-10-18T08:08:13.574Z,0.885
2022-10-18T08:09:16.410Z,1.02
2022-10-18T08:10:19.100Z,1.17
2022-10-18T08:11:53.734Z,1.17
2022-10-18T08:12:56.491Z,1.17
2022-10-18T08:13:59.223Z,1.02
2022-10-18T08:15:33.716Z,1.17
2022-10-18T08:16:36.587Z,1.32
2022-10-18T08:17:39.659Z,1.17
2022-10-18T08:19:14.233Z,1.17
2022-10-18T08:20:53.171Z,1.02
2022-10-18T08:21:55.907Z,1.17
2022-10-18T08:23:30.414Z,1.32
2022-10-18T08:24:33.291Z,1.17
2022-10-18T08:27:11.106Z,1.17
2022-10-18T08:28:13.884Z,1.17
2022-10-18T08:29:48.860Z,1.32
2022-10-18T08:31:23.326Z,1.17
2022-10-18T08:32:26.051Z,1.17
2022-10-18T08:33:28.763Z,1.02
2022-10-18T08:35:05.677Z,1.17
2022-10-18T08:36:11.462Z,1.17
2022-10-18T08:37:14.213Z,1.32
2022-10-18T08:38:49.147Z,1.47
2022-10-18T08:39:51.842Z,1.32
2022-10-18T08:40:54.653Z,1.32
2022-10-18T08:42:29.491Z,1.17
2022-10-18T08:43:38.595Z,1.32
2022-10-18T08:44:41.339Z,1.47
2022-10-18T08:46:50.072Z,1.32
2022-10-18T08:47:53.606Z,1.32
2022-10-18T08:48:56.296Z,1.32
2022-10-18T08:50:30.842Z,1.17
2022-10-18T08:51:33.657Z,1.17
2022-10-18T08:52:36.511Z,1.17
2022-10-18T08:54:11.205Z,1.32
2022-10-18T08:55:14.104Z,1.32
2022-10-18T08:56:16.915Z,1.17
2022-10-18T08:57:52.478Z,1.17
2022-10-18T08:58:55.400Z,1.17
2022-10-18T08:59:58.226Z,1.17
2022-10-18T09:00:39.622Z,1.17
2022-10-18T09:01:42.957Z,1.17
2022-10-18T09:02:46.905Z,1.17
2022-10-18T09:04:21.813Z,1.17
2022-10-18T09:05:24.660Z,1.02
2022-10-18T09:06:33.799Z,1.17
2022-10-18T09:08:08.348Z,1.17
2022-10-18T09:09:11.274Z,1.17
2022-10-18T09:10:14.099Z,1.17
2022-10-18T09:11:49.031Z,1.17
2022-10-18T09:12:52.361Z,1.17
2022-10-18T09:13:55.153Z,1.17
2022-10-18T09:15:29.854Z,1.17
2022-10-18T09:16:32.579Z,1.17
2022-10-18T09:17:38.769Z,1.17
2022-10-18T09:19:13.266Z,1.17
2022-10-18T09:20:17.167Z,1.02
2022-10-18T09:21:20.066Z,1.17
2022-10-18T09:22:55.030Z,1.02
2022-10-18T09:23:57.824Z,1.17
2022-10-18T09:25:00.602Z,1.17
2022-10-18T09:26:35.122Z,1.17
2022-10-18T09:27:37.915Z,1.17
2022-10-18T09:28:41.205Z,1.32
2022-10-18T09:30:16.662Z,1.17
2022-10-18T09:31:22.716Z,1.17
2022-10-18T09:32:25.506Z,1.17
2022-10-18T09:34:00.220Z,1.17
2022-10-18T09:35:02.935Z,1.17
2022-10-18T09:36:05.697Z,1.17
2022-10-18T09:37:40.420Z,1.17
2022-10-18T09:38:43.473Z,1.17
2022-10-18T09:39:46.159Z,1.17
2022-10-18T09:41:27.207Z,1.32
2022-10-18T09:42:30.238Z,1.17
2022-10-18T09:43:33.279Z,1.17
2022-10-18T09:45:07.835Z,1.02
2022-10-18T09:46:10.653Z,1.17
2022-10-18T09:47:16.473Z,1.17
2022-10-18T09:48:51.755Z,1.17
2022-10-18T09:49:54.595Z,1.02
2022-10-18T09:50:57.228Z,1.02
2022-10-18T09:52:32.225Z,1.17
2022-10-18T09:53:35.131Z,1.02
2022-10-18T09:54:37.933Z,1.02
2022-10-18T09:56:12.409Z,1.02
2022-10-18T09:57:15.492Z,1.17
2022-10-18T09:58:18.424Z,1.17
2022-10-18T09:59:52.923Z,1.02
2022-10-18T10:00:40.002Z,1.17
2022-10-18T10:01:42.782Z,1.02
2022-10-18T10:02:46.196Z,1.17
2022-10-18T10:04:20.693Z,1.17
2022-10-18T10:05:23.573Z,1.02
2022-10-18T10:06:26.372Z,1.17
2022-10-18T10:08:03.740Z,1.17
2022-10-18T10:09:06.533Z,1.17
2022-10-18T10:10:09.189Z,1.17
2022-10-18T10:11:43.632Z,1.17
2022-10-18T10:12:46.449Z,1.02
2022-10-18T10:13:49.272Z,1.17
2022-10-18T10:15:25.533Z,1.02
2022-10-18T10:16:29.862Z,1.17
2022-10-18T10:17:33.060Z,1.02
2022-10-18T10:19:07.891Z,1.17
2022-10-18T10:20:10.547Z,1.17
2022-10-18T10:21:13.273Z,1.17
2022-10-18T10:22:47.939Z,1.17
2022-10-18T10:23:50.727Z,1.17
2022-10-18T10:24:59.219Z,1.17
2022-10-18T10:26:34.067Z,1.02
2022-10-18T10:27:37.309Z,1.17
2022-10-18T10:28:40.393Z,1.17
2022-10-18T10:30:47.374Z,1.17
2022-10-18T10:31:50.167Z,1.17
2022-10-18T10:32:53.023Z,1.02
2022-10-18T10:34:27.568Z,1.17
2022-10-18T10:36:05.145Z,1.17
2022-10-18T10:37:08.220Z,1.17
2022-10-18T10:38:43.976Z,1.17
2022-10-18T10:40:17.245Z,1.02
2022-10-18T10:41:21.503Z,1.17
2022-10-18T10:43:04.316Z,1.17
2022-10-18T10:44:15.883Z,1.17
2022-10-18T10:45:18.565Z,1.17
2022-10-18T10:46:53.148Z,1.17
2022-10-18T10:47:55.824Z,1.17
2022-10-18T10:51:12.222Z,1.17
2022-10-18T10:52:45.173Z,1.17
2022-10-18T10:53:47.745Z,1.17
2022-10-18T10:55:57.058Z,1.17
2022-10-18T10:56:59.828Z,1.02
2022-10-18T10:58:02.718Z,1.17
2022-10-18T10:59:37.871Z,1.17
2022-10-18T11:00:40.764Z,1.17
2022-10-18T11:01:43.452Z,1.02
2022-10-18T11:03:05.305Z,1.17
2022-10-18T11:04:46.205Z,1.17
2022-10-18T11:05:49.084Z,1.02
2022-10-18T11:06:51.791Z,1.17
2022-10-18T11:08:29.744Z,1.17
2022-10-18T11:09:32.580Z,1.17
2022-10-18T11:10:35.429Z,1.17
2022-10-18T11:12:10.241Z,1.17
2022-10-18T11:13:13.085Z,1.17
2022-10-18T11:14:48.473Z,1.17
2022-10-18T11:16:22.987Z,1.17
2022-10-18T11:17:30.468Z,1.17
2022-10-18T11:18:33.353Z,1.17
2022-10-18T11:20:07.866Z,1.17
2022-10-18T11:21:11.103Z,1.17
2022-10-18T11:22:13.953Z,1.17
2022-10-18T11:23:48.972Z,1.17
2022-10-18T11:24:51.674Z,1.17
2022-10-18T11:25:54.514Z,1.17
2022-10-18T11:27:29.076Z,1.17
2022-10-18T11:28:32.202Z,1.17
2022-10-18T11:29:35.183Z,1.17
2022-10-18T11:31:09.738Z,1.17
2022-10-18T11:32:12.460Z,1.17
2022-10-18T11:33:15.128Z,1.17
2022-10-18T11:35:21.223Z,1.17
2022-10-18T11:36:31.202Z,1.17
2022-10-18T11:38:01.784Z,1.17
2022-10-18T11:39:36.253Z,1.17
2022-10-18T11:40:39.060Z,1.17
2022-10-18T11:41:41.845Z,1.17
2022-10-18T11:43:17.194Z,1.17
2022-10-18T11:44:30.847Z,1.17
2022-10-18T11:45:33.750Z,1.17
2022-10-18T11:47:08.440Z,1.17
2022-10-18T11:48:17.511Z,1.17
2022-10-18T11:49:20.239Z,1.17
2022-10-18T11:50:54.803Z,1.17
2022-10-18T11:52:30.484Z,1.17
2022-10-18T11:53:33.257Z,1.17
2022-10-18T11:55:07.907Z,1.17
2022-10-18T11:56:10.694Z,1.02
2022-10-18T11:57:13.512Z,1.17
2022-10-18T11:58:48.939Z,1.17
2022-10-18T11:59:51.687Z,1.17
2022-10-18T12:00:40.500Z,1.17
2022-10-18T12:01:50.001Z,1.02
2022-10-18T12:02:54.224Z,1.02
2022-10-18T12:04:28.799Z,1.17
2022-10-18T12:05:52.547Z,1.17
2022-10-18T12:06:55.324Z,1.17
2022-10-18T12:08:40.011Z,1.17
2022-10-18T12:09:43.112Z,1.17
2022-10-18T12:11:27.291Z,1.02
2022-10-18T12:13:05.350Z,1.02
2022-10-18T12:14:08.138Z,1.17
2022-10-18T12:15:10.893Z,1.17
2022-10-18T12:17:58.043Z,1.17
2022-10-18T12:19:01.140Z,1.17
2022-10-18T12:20:03.864Z,1.17
2022-10-18T12:21:42.688Z,1.02
2022-10-18T12:22:46.147Z,1.17
2022-10-18T12:23:48.986Z,1.02
2022-10-18T12:25:23.611Z,1.02
2022-10-18T12:26:26.389Z,1.17
2022-10-18T12:27:29.178Z,1.02
2022-10-18T12:29:04.479Z,1.02
2022-10-18T12:30:11.953Z,1.02
2022-10-18T12:31:14.614Z,1.17
2022-10-18T12:33:27.340Z,1.17
2022-10-18T12:34:31.221Z,1.02
2022-10-18T12:35:34.029Z,1.02
2022-10-18T12:37:08.864Z,1.02
2022-10-18T12:38:11.718Z,1.02
2022-10-18T12:39:14.465Z,1.17
2022-10-18T12:41:24.467Z,1.02
2022-10-18T12:42:27.375Z,1.02
2022-10-18T12:43:30.084Z,1.02
2022-10-18T12:45:04.577Z,1.02
2022-10-18T12:46:12.219Z,1.17
2022-10-18T12:47:16.481Z,1.02
2022-10-18T12:48:51.446Z,1.02
2022-10-18T12:49:59.426Z,1.17
2022-10-18T12:51:02.143Z,1.17
2022-10-18T12:52:36.666Z,1.02
2022-10-18T12:53:39.426Z,1.02
2022-10-18T12:54:42.290Z,1.17
2022-10-18T12:56:23.135Z,1.02
2022-10-18T12:57:27.908Z,1.02
2022-10-18T12:58:30.746Z,1.02
2022-10-18T13:00:39.586Z,1.02
2022-10-18T13:01:43.007Z,1.02
2022-10-18T13:02:49.215Z,1.02
2022-10-18T13:04:23.768Z,0.885
2022-10-18T13:06:06.722Z,1.02
2022-10-18T13:07:09.872Z,1.02
2022-10-18T13:08:45.182Z,1.17
2022-10-18T13:09:47.976Z,1.17
2022-10-18T13:10:50.696Z,1.17
2022-10-18T13:12:30.035Z,1.17
2022-10-18T13:15:46.094Z,1.17
2022-10-18T13:17:20.564Z,1.17
2022-10-18T13:18:23.375Z,1.17
2022-10-18T13:19:26.369Z,1.17
2022-10-18T13:21:33.186Z,1.17
2022-10-18T13:22:35.960Z,1.17
2022-10-18T13:23:43.490Z,1.02
2022-10-18T13:25:18.011Z,1.02
2022-10-18T13:26:20.788Z,1.17
2022-10-18T13:28:00.464Z,1.17
2022-10-18T13:29:35.629Z,1.02
2022-10-18T13:30:38.562Z,1.02
2022-10-18T13:31:41.447Z,1.02
2022-10-18T13:33:16.115Z,1.02
2022-10-18T13:34:18.885Z,1.02
2022-10-18T13:35:21.649Z,1.02
2022-10-18T13:36:56.403Z,1.17
2022-10-18T13:37:59.228Z,1.02
2022-10-18T13:39:02.146Z,1.02
2022-10-18T13:40:36.691Z,1.02
2022-10-18T13:41:46.569Z,1.02
2022-10-18T13:42:50.070Z,1.02
2022-10-18T13:44:24.921Z,1.02
2022-10-18T13:45:27.763Z,1.02
2022-10-18T13:46:30.468Z,1.02
2022-10-18T13:48:05.110Z,1.02
2022-10-18T13:49:08.043Z,1.02
2022-10-18T13:50:16.265Z,1.02
2022-10-18T13:51:50.916Z,1.02
2022-10-18T13:52:54.843Z,0.885
2022-10-18T13:53:57.940Z,1.02
2022-10-18T13:55:32.628Z,1.02
2022-10-18T13:56:35.528Z,1.02
2022-10-18T13:57:38.584Z,0.885
2022-10-18T13:59:36.949Z,0.885
2022-10-18T14:00:48.177Z,0.885
2022-10-18T14:02:02.077Z,0.885
2022-10-18T14:04:06.668Z,0.885
2022-10-18T14:05:53.629Z,0.885
2022-10-18T14:06:59.962Z,0.885
2022-10-18T14:08:09.503Z,0.735
2022-10-18T14:10:15.884Z,0.885
2022-10-18T14:11:30.166Z,0.735
2022-10-18T14:12:33.307Z,0.735
2022-10-18T14:14:08.314Z,0.885
2022-10-18T14:15:11.359Z,0.735
2022-10-18T14:16:14.180Z,0.735
2022-10-18T14:17:50.460Z,0.885
2022-10-18T14:18:56.047Z,0.735
2022-10-18T14:19:58.892Z,0.585
2022-10-18T14:21:59.212Z,0.735
2022-10-18T14:23:02.937Z,0.735
2022-10-18T14:24:05.622Z,0.735
2022-10-18T14:25:40.418Z,0.585
2022-10-18T14:26:43.568Z,0.585
2022-10-18T14:27:50.887Z,0.735
2022-10-18T14:30:02.685Z,0.585
2022-10-18T14:31:05.689Z,0.585
2022-10-18T14:32:08.778Z,0.585
2022-10-18T14:33:43.879Z,0.585
2022-10-18T14:34:46.710Z,0.585
2022-10-18T14:36:01.625Z,0.585
2022-10-18T14:37:36.758Z,0.585
2022-10-18T14:38:39.863Z,0.585
2022-10-18T14:39:42.719Z,0.585
2022-10-18T14:41:17.465Z,0.735
2022-10-18T14:42:20.368Z,0.585
2022-10-18T14:43:22.984Z,0.585
2022-10-18T14:45:01.512Z,0.585
2022-10-18T14:46:04.513Z,0.585
2022-10-18T14:47:07.336Z,0.585
2022-10-18T14:48:42.554Z,0.585
2022-10-18T14:49:45.550Z,0.585
2022-10-18T14:50:53.222Z,0.435
2022-10-18T14:52:41.166Z,0.585
2022-10-18T14:53:44.250Z,0.435
2022-10-18T14:54:51.442Z,0.435
2022-10-18T14:56:26.058Z,0.435
2022-10-18T14:57:29.014Z,0.585
2022-10-18T14:58:31.848Z,0.435
2022-10-18T15:00:43.906Z,0.435
2022-10-18T15:01:49.739Z,0.435
2022-10-18T15:02:53.103Z,0.585
2022-10-18T15:04:34.298Z,0.435
2022-10-18T15:05:37.196Z,0.435
2022-10-18T15:06:40.048Z,0.435
2022-10-18T15:08:14.744Z,0.435
2022-10-18T15:09:17.591Z,0.435
2022-10-18T15:10:20.436Z,0.585
2022-10-18T15:11:55.271Z,0.435
2022-10-18T15:13:32.610Z,0.435
2022-10-18T15:14:35.431Z,0.435
2022-10-18T15:16:10.116Z,0.435
2022-10-18T15:17:12.837Z,0.435
2022-10-18T15:18:15.473Z,0.435
2022-10-18T15:19:50.854Z,0.435
2022-10-18T15:20:54.207Z,0.435
2022-10-18T15:22:31.715Z,0.435
2022-10-18T15:24:07.008Z,0.435
2022-10-18T15:25:09.900Z,0.435
2022-10-18T15:26:12.767Z,0.435
2022-10-18T15:27:48.237Z,0
2022-10-18T15:28:51.642Z,0.435
2022-10-18T15:29:54.555Z,0
2022-10-18T15:31:29.301Z,0
2022-10-18T15:32:32.516Z,0
2022-10-18T15:33:35.823Z,0.435
2022-10-18T15:35:10.566Z,0
2022-10-18T15:36:13.437Z,0.435
2022-10-18T15:37:16.258Z,0
2022-10-18T15:38:55.617Z,0
2022-10-18T15:39:58.413Z,0.435
2022-10-18T15:41:01.298Z,0.435
2022-10-18T15:42:35.862Z,0
2022-10-18T15:43:38.931Z,0
2022-10-18T15:44:42.412Z,0
2022-10-18T15:46:23.712Z,0
2022-10-18T15:47:26.827Z,0
2022-10-18T15:48:29.587Z,0
2022-10-18T15:50:04.272Z,0
2022-10-18T15:51:06.941Z,0
2022-10-18T15:52:09.786Z,0
2022-10-18T15:53:51.754Z,0
2022-10-18T15:54:54.841Z,0
2022-10-18T15:55:57.767Z,0
2022-10-18T15:57:37.218Z,0
2022-10-18T15:58:40.565Z,0
2022-10-18T15:59:43.541Z,0
2022-10-18T16:00:39.953Z,0
2022-10-18T16:01:43.672Z,0
2022-10-18T16:02:46.475Z,0
2022-10-18T16:04:21.230Z,0
2022-10-18T16:06:09.913Z,0
2022-10-18T16:07:13.215Z,0
2022-10-18T16:08:16.168Z,0
2022-10-18T16:09:51.014Z,0
2022-10-18T16:10:53.916Z,0
2022-10-18T16:12:02.747Z,0
2022-10-18T16:13:37.244Z,0
2022-10-18T16:14:40.073Z,0
2022-10-18T16:15:42.833Z,0
2022-10-18T16:17:17.510Z,0
2022-10-18T16:18:20.440Z,0
2022-10-18T16:19:23.309Z,0
2022-10-18T16:20:57.948Z,0
2022-10-18T16:22:06.002Z,0
2022-10-18T16:23:10.325Z,0
2022-10-18T16:24:44.884Z,0
2022-10-18T16:25:47.865Z,0
2022-10-18T16:26:50.714Z,0
2022-10-18T16:28:25.752Z,0
2022-10-18T16:29:28.948Z,0
2022-10-18T16:30:38.564Z,0
2022-10-18T16:32:13.598Z,0
2022-10-18T16:33:19.264Z,0
2022-10-18T16:34:24.268Z,0
2022-10-18T16:35:58.997Z,0
2022-10-18T16:37:01.789Z,0
2022-10-18T16:38:04.506Z,0
2022-10-18T16:39:43.537Z,0
2022-10-18T16:40:51.715Z,0
2022-10-18T16:41:54.395Z,0
2022-10-18T16:43:29.057Z,0
2022-10-18T16:44:31.938Z,0
2022-10-18T16:45:35.026Z,0
2022-10-18T16:47:16.261Z,0
2022-10-18T16:48:19.080Z,0
2022-10-18T16:49:21.974Z,0
2022-10-18T16:51:01.184Z,0
2022-10-18T16:52:03.864Z,0
2022-10-18T16:53:06.994Z,0
2022-10-18T16:54:41.773Z,0
2022-10-18T16:55:44.653Z,0
2022-10-18T16:56:47.442Z,0
2022-10-18T16:59:24.986Z,0
2022-10-18T17:00:39.700Z,0
2022-10-18T17:01:43.152Z,0
2022-10-18T17:02:46.576Z,0
2022-10-18T17:04:21.121Z,0
2022-10-18T17:05:23.965Z,0
2022-10-18T17:06:26.829Z,0
2022-10-18T17:08:01.598Z,0
2022-10-18T17:09:04.421Z,0
2022-10-18T17:10:07.157Z,0
2022-10-18T17:11:41.947Z,0
2022-10-18T17:12:45.319Z,0
2022-10-18T17:13:48.050Z,0
2022-10-18T17:15:22.647Z,0
2022-10-18T17:16:25.449Z,0
2022-10-18T17:17:28.281Z,0
2022-10-18T17:19:02.971Z,0
2022-10-18T17:20:05.799Z,0
2022-10-18T17:21:08.956Z,0
2022-10-18T17:22:43.565Z,0
2022-10-18T17:23:46.382Z,0
2022-10-18T17:24:49.346Z,0
2022-10-18T17:26:54.547Z,0
2022-10-18T17:27:57.995Z,0
2022-10-18T17:29:01.391Z,0
2022-10-18T17:30:35.999Z,0
2022-10-18T17:31:38.699Z,0
2022-10-18T17:32:41.565Z,0
2022-10-18T17:34:20.926Z,0
2022-10-18T17:35:24.269Z,0
2022-10-18T17:36:27.309Z,0
2022-10-18T17:38:07.782Z,0
2022-10-18T17:39:10.544Z,0
2022-10-18T17:40:13.336Z,0